METAR Data
IDs: Format: Raw Decoded Include TAF

Data at: 1238 UTC 26 Feb 2021

KMKL 261153Z AUTO 11007KT 10SM -RA OVC085 06/03 A3008 RMK AO2 SLP186 P0005 60007 70007 T00560028 10089 20056 58007